Terminal Aerodrome Forecast
Issued by NWS

Home | Current Version | Previous Version | Text Only | Print | Product List | Glossary On
Versions: 1 2 3 4 5 6 7 8 9 10 11 12 13
174
FTUS45 KFGZ 081720
TAFSEZ
TAF
KSEZ 081720Z 0818/0918 VRB04KT P6SM FEW120 SCT250
     FM090200 04010KT P6SM FEW120 SCT170 BKN250
     FM091600 17005KT P6SM FEW170 SCT250=

USA.gov is the U.S. government's official web portal to all federal, state and local government web resources and services.